createdAt,value
2018-03-04T00:02:25.597Z,47.30
2018-03-04T00:04:54.367Z,47.50
2018-03-04T00:07:23.122Z,46.90
2018-03-04T00:09:52.340Z,48.40
2018-03-04T00:12:21.558Z,46.70
2018-03-04T00:14:50.240Z,46.40
2018-03-04T00:17:18.682Z,46.50
2018-03-04T00:19:47.117Z,46.50
2018-03-04T00:22:15.738Z,46.60
2018-03-04T00:24:45.331Z,46.30
2018-03-04T00:27:13.908Z,46.50
2018-03-04T00:29:43.660Z,46.50
2018-03-04T00:32:13.381Z,46.50
2018-03-04T00:34:43.629Z,46.40
2018-03-04T00:37:17.864Z,46.20
2018-03-04T00:40:34.006Z,46.40
2018-03-04T00:43:23.129Z,46.60
2018-03-04T00:45:51.841Z,46.60
2018-03-04T00:48:20.322Z,46.60
2018-03-04T00:50:48.978Z,46.80
2018-03-04T00:53:17.720Z,47.10
2018-03-04T00:55:47.395Z,47.50
2018-03-04T00:58:16.010Z,47.40
2018-03-04T01:00:45.242Z,47.70
2018-03-04T01:03:13.846Z,47.50
2018-03-04T01:05:42.283Z,47.90
2018-03-04T01:08:11.933Z,48.20
2018-03-04T01:10:40.817Z,48.20
2018-03-04T01:13:09.583Z,48.40
2018-03-04T01:15:38.987Z,48.70
2018-03-04T01:18:07.801Z,48.60
2018-03-04T01:20:37.201Z,48.80
2018-03-04T01:23:06.742Z,48.50
2018-03-04T01:25:35.953Z,48.50
2018-03-04T01:28:19.509Z,48.60
2018-03-04T01:31:01.288Z,48.80
2018-03-04T01:39:57.632Z,49.00
2018-03-04T01:42:26.393Z,48.80
2018-03-04T01:44:54.857Z,49.00
2018-03-04T01:47:24.220Z,49.20
2018-03-04T01:49:52.898Z,49.10
2018-03-04T01:52:22.046Z,49.10
2018-03-04T01:54:50.667Z,49.50
2018-03-04T01:57:20.801Z,49.40
2018-03-04T01:59:49.447Z,49.60
2018-03-04T02:02:17.967Z,49.60
2018-03-04T02:04:46.447Z,49.60
2018-03-04T02:07:15.858Z,50.00
2018-03-04T02:09:44.402Z,49.70
2018-03-04T02:12:12.886Z,49.70
2018-03-04T02:14:41.606Z,49.70
2018-03-04T02:17:11.067Z,49.60
2018-03-04T02:19:39.900Z,49.50
2018-03-04T02:22:08.902Z,49.70
2018-03-04T02:24:37.749Z,49.80
2018-03-04T02:27:06.783Z,49.90
2018-03-04T02:30:01.817Z,49.80
2018-03-04T02:38:55.081Z,49.90
2018-03-04T02:41:23.728Z,49.90
2018-03-04T02:43:52.824Z,50.10
2018-03-04T02:46:21.459Z,50.00
2018-03-04T02:48:50.006Z,50.00
2018-03-04T02:51:18.523Z,50.20
2018-03-04T02:53:47.072Z,50.00
2018-03-04T02:56:15.523Z,50.00
2018-03-04T02:58:44.853Z,51.80
2018-03-04T03:01:13.474Z,48.90
2018-03-04T03:03:42.966Z,50.30
2018-03-04T03:06:11.665Z,50.10
2018-03-04T03:08:40.220Z,50.20
2018-03-04T03:11:08.700Z,50.10
2018-03-04T03:13:37.330Z,50.00
2018-03-04T03:16:05.861Z,50.10
2018-03-04T03:18:35.806Z,51.90
2018-03-04T03:21:05.318Z,50.20
2018-03-04T03:23:34.022Z,50.30
2018-03-04T03:26:02.691Z,50.40
2018-03-04T03:28:31.270Z,50.30
2018-03-04T03:31:00.089Z,50.40
2018-03-04T03:33:29.424Z,50.50
2018-03-04T03:35:57.894Z,50.20
2018-03-04T03:38:27.098Z,50.30
2018-03-04T03:40:55.652Z,50.20
2018-03-04T03:43:24.277Z,50.30
2018-03-04T03:45:52.741Z,50.00
2018-03-04T03:48:21.978Z,50.20
2018-03-04T03:50:50.749Z,50.30
2018-03-04T03:53:19.455Z,50.40
2018-03-04T03:55:48.310Z,50.50
2018-03-04T03:58:18.251Z,50.40
2018-03-04T04:00:46.866Z,50.40
2018-03-04T04:03:15.425Z,50.50
2018-03-04T04:05:44.234Z,50.40
2018-03-04T04:08:12.812Z,50.60
2018-03-04T04:10:41.857Z,50.90
2018-03-04T04:13:11.321Z,50.90
2018-03-04T04:15:39.975Z,50.80
2018-03-04T04:18:08.408Z,50.90
2018-03-04T04:20:37.231Z,50.80
2018-03-04T04:23:05.728Z,50.70
2018-03-04T04:25:34.171Z,50.70
2018-03-04T04:28:03.645Z,50.80
2018-03-04T04:30:32.223Z,50.70
2018-03-04T04:33:00.670Z,50.80
2018-03-04T04:35:29.167Z,52.30
2018-03-04T04:37:57.694Z,50.60
2018-03-04T04:40:26.147Z,50.90
2018-03-04T04:42:54.660Z,50.70
2018-03-04T04:45:23.109Z,50.70
2018-03-04T04:47:51.694Z,50.80
2018-03-04T04:50:21.821Z,50.70
2018-03-04T04:52:50.282Z,50.70
2018-03-04T04:55:18.916Z,50.70
2018-03-04T04:57:47.605Z,50.70
2018-03-04T05:00:19.093Z,51.50
2018-03-04T05:02:47.696Z,50.50
2018-03-04T05:05:16.146Z,50.70
2018-03-04T05:07:44.638Z,50.70
2018-03-04T05:10:13.114Z,50.70
2018-03-04T05:12:41.752Z,50.70
2018-03-04T05:15:12.575Z,50.70
2018-03-04T05:17:41.844Z,50.70
2018-03-04T05:20:19.882Z,50.70
2018-03-04T05:22:48.350Z,50.70
2018-03-04T05:25:16.834Z,50.70
2018-03-04T05:27:45.422Z,50.70
2018-03-04T05:30:13.930Z,50.60
2018-03-04T05:32:42.496Z,50.70
2018-03-04T05:35:12.871Z,50.30
2018-03-04T05:37:42.931Z,50.60
2018-03-04T05:40:11.377Z,50.60
2018-03-04T05:42:40.771Z,50.60
2018-03-04T05:45:10.001Z,50.60
2018-03-04T05:47:38.599Z,50.60
2018-03-04T05:50:07.099Z,50.60
2018-03-04T05:52:36.084Z,50.60
2018-03-04T05:55:04.773Z,50.60
2018-03-04T05:57:33.379Z,50.60
2018-03-04T06:00:01.831Z,50.70
2018-03-04T06:02:30.421Z,50.80
2018-03-04T06:04:59.018Z,50.90
2018-03-04T06:07:28.309Z,51.10
2018-03-04T06:10:00.531Z,50.80
2018-03-04T06:12:29.022Z,51.10
2018-03-04T06:14:57.508Z,51.00
2018-03-04T06:17:26.338Z,51.00
2018-03-04T06:19:54.779Z,51.20
2018-03-04T06:22:23.490Z,51.10
2018-03-04T06:24:51.915Z,51.10
2018-03-04T06:27:22.446Z,51.20
2018-03-04T06:29:51.670Z,51.20
2018-03-04T06:32:20.393Z,51.00
2018-03-04T06:34:49.900Z,52.80
2018-03-04T06:37:18.591Z,51.20
2018-03-04T06:39:47.014Z,51.30
2018-03-04T06:42:16.234Z,51.00
2018-03-04T06:44:44.882Z,51.00
2018-03-04T06:47:13.383Z,51.10
2018-03-04T06:49:42.523Z,51.10
2018-03-04T06:52:11.326Z,51.00
2018-03-04T06:54:40.829Z,52.70
2018-03-04T06:57:10.220Z,51.10
2018-03-04T06:59:39.143Z,51.00
2018-03-04T07:02:08.287Z,51.10
2018-03-04T07:04:37.217Z,51.20
2018-03-04T07:07:05.878Z,51.20
2018-03-04T07:09:34.586Z,51.20
2018-03-04T07:12:03.049Z,51.30
2018-03-04T07:14:31.524Z,51.20
2018-03-04T07:17:00.926Z,51.30
2018-03-04T07:19:29.392Z,51.40
2018-03-04T07:21:58.782Z,51.40
2018-03-04T07:24:28.237Z,51.40
2018-03-04T07:26:56.882Z,51.40
2018-03-04T07:29:25.419Z,51.40
2018-03-04T07:31:54.092Z,51.40
2018-03-04T07:34:22.731Z,51.30
2018-03-04T07:36:51.203Z,51.40
2018-03-04T07:39:20.400Z,51.20
2018-03-04T07:41:49.658Z,51.20
2018-03-04T07:44:18.288Z,51.20
2018-03-04T07:46:46.897Z,51.40
2018-03-04T07:49:15.601Z,53.30
2018-03-04T07:51:44.806Z,53.30
2018-03-04T07:54:13.499Z,51.80
2018-03-04T07:56:42.186Z,51.70
2018-03-04T07:59:10.832Z,51.70
2018-03-04T08:01:39.666Z,51.50
2018-03-04T08:04:18.675Z,51.40
2018-03-04T08:06:47.742Z,51.20
2018-03-04T08:09:17.513Z,51.20
2018-03-04T08:11:49.924Z,51.50
2018-03-04T08:14:18.976Z,47.10
2018-03-04T08:16:47.580Z,44.50
2018-03-04T08:19:16.400Z,44.20
2018-03-04T08:21:44.890Z,46.50
2018-03-04T08:24:27.990Z,52.00
2018-03-04T08:27:15.686Z,53.60
2018-03-04T08:29:44.529Z,53.60
2018-03-04T08:32:13.364Z,53.50
2018-03-04T08:34:42.017Z,53.30
2018-03-04T08:37:10.638Z,53.00
2018-03-04T08:39:39.220Z,53.20
2018-03-04T08:42:07.774Z,53.30
2018-03-04T08:44:36.302Z,53.30
2018-03-04T08:47:05.130Z,55.30
2018-03-04T08:49:34.166Z,54.30
2018-03-04T08:52:03.650Z,53.90
2018-03-04T08:54:32.113Z,53.60
2018-03-04T08:57:00.575Z,51.80
2018-03-04T08:59:29.980Z,50.70
2018-03-04T09:01:59.448Z,50.70
2018-03-04T09:04:28.077Z,50.70
2018-03-04T09:06:56.524Z,50.30
2018-03-04T09:09:25.137Z,50.30
2018-03-04T09:11:55.759Z,50.00
2018-03-04T09:14:25.023Z,50.10
2018-03-04T09:16:53.553Z,49.90
2018-03-04T09:19:23.145Z,49.80
2018-03-04T09:21:52.624Z,51.50
2018-03-04T09:24:21.659Z,49.90
2018-03-04T09:26:51.734Z,50.30
2018-03-04T09:29:20.474Z,50.20
2018-03-04T09:31:49.122Z,49.70
2018-03-04T09:34:17.580Z,49.60
2018-03-04T09:36:46.019Z,49.50
2018-03-04T09:39:14.550Z,49.30
2018-03-04T09:41:46.188Z,49.30
2018-03-04T09:44:14.717Z,49.30
2018-03-04T09:46:44.214Z,49.10
2018-03-04T09:49:14.176Z,49.00
2018-03-04T09:51:42.871Z,48.90
2018-03-04T09:54:11.376Z,48.80
2018-03-04T09:56:40.073Z,52.20
2018-03-04T09:59:08.962Z,53.10
2018-03-04T10:01:37.781Z,53.70
2018-03-04T10:04:06.403Z,53.40
2018-03-04T10:06:35.033Z,54.00
2018-03-04T10:09:03.611Z,53.30
2018-03-04T10:11:32.411Z,53.20
2018-03-04T10:14:02.531Z,53.10
2018-03-04T10:16:32.146Z,53.20
2018-03-04T10:19:01.630Z,51.90
2018-03-04T10:21:30.843Z,52.90
2018-03-04T10:23:59.516Z,52.60
2018-03-04T10:26:28.324Z,52.50
2018-03-04T10:28:56.817Z,52.20
2018-03-04T10:31:26.749Z,51.90
2018-03-04T10:33:56.747Z,51.80
2018-03-04T10:36:26.005Z,53.00
2018-03-04T10:38:54.637Z,52.40
2018-03-04T10:41:24.946Z,52.70
2018-03-04T10:43:53.979Z,52.60
2018-03-04T10:46:22.712Z,52.60
2018-03-04T10:48:51.361Z,52.60
2018-03-04T10:51:19.944Z,52.60
2018-03-04T10:53:48.593Z,52.50
2018-03-04T10:56:18.176Z,52.50
2018-03-04T10:58:47.096Z,52.50
2018-03-04T11:04:11.593Z,52.30
2018-03-04T11:06:40.353Z,52.60
2018-03-04T11:09:08.910Z,52.70
2018-03-04T11:11:38.423Z,52.70
2018-03-04T11:14:07.683Z,52.70
2018-03-04T11:16:39.581Z,53.80
2018-03-04T11:19:10.062Z,53.50
2018-03-04T11:21:38.985Z,53.10
2018-03-04T11:24:09.493Z,53.00
2018-03-04T11:26:41.395Z,52.70
2018-03-04T11:29:10.975Z,52.60
2018-03-04T11:31:42.213Z,52.00
2018-03-04T11:34:11.787Z,52.30
2018-03-04T11:36:42.178Z,52.20
2018-03-04T11:39:10.832Z,52.60
2018-03-04T11:41:40.149Z,53.00
2018-03-04T11:44:09.465Z,53.10
2018-03-04T11:46:38.179Z,53.10
2018-03-04T11:49:07.123Z,53.20
2018-03-04T11:51:36.484Z,53.20
2018-03-04T11:54:05.040Z,53.10
2018-03-04T11:56:33.751Z,53.10
2018-03-04T11:59:02.580Z,53.50
2018-03-04T12:01:31.822Z,53.10
2018-03-04T12:04:00.317Z,53.00
2018-03-04T12:06:28.865Z,53.10
2018-03-04T12:08:57.495Z,52.90
2018-03-04T12:11:25.958Z,53.00
2018-03-04T12:13:54.448Z,53.10
2018-03-04T12:16:23.548Z,52.70
2018-03-04T12:18:52.241Z,52.90
2018-03-04T12:21:20.700Z,52.70
2018-03-04T12:23:50.331Z,52.90
2018-03-04T12:26:19.201Z,53.10
2018-03-04T12:28:48.172Z,54.70
2018-03-04T12:31:16.797Z,53.10
2018-03-04T12:33:45.840Z,52.90
2018-03-04T12:36:14.599Z,52.70
2018-03-04T12:38:43.366Z,52.30
2018-03-04T12:41:11.858Z,50.90
2018-03-04T12:43:40.554Z,51.80
2018-03-04T12:46:09.789Z,51.70
2018-03-04T12:48:39.453Z,52.20
2018-03-04T12:51:08.123Z,51.90
2018-03-04T12:53:37.414Z,52.20
2018-03-04T12:56:07.042Z,52.40
2018-03-04T12:58:35.623Z,52.40
2018-03-04T13:01:04.338Z,52.40
2018-03-04T13:03:32.841Z,52.10
2018-03-04T13:06:03.538Z,51.20
2018-03-04T13:08:32.079Z,51.00
2018-03-04T13:11:00.697Z,51.30
2018-03-04T13:13:29.712Z,51.60
2018-03-04T13:15:58.355Z,51.70
2018-03-04T13:18:27.206Z,51.80
2018-03-04T13:20:56.961Z,52.10
2018-03-04T13:23:25.570Z,52.10
2018-03-04T13:25:54.259Z,51.90
2018-03-04T13:28:22.886Z,51.60
2018-03-04T13:30:52.363Z,51.50
2018-03-04T13:33:21.137Z,51.50
2018-03-04T13:35:50.135Z,51.50
2018-03-04T13:38:18.788Z,51.40
2018-03-04T13:40:47.362Z,51.40
2018-03-04T13:43:16.059Z,51.60
2018-03-04T13:45:44.758Z,51.40
2018-03-04T13:48:13.617Z,51.40
2018-03-04T13:50:42.595Z,51.00
2018-03-04T13:53:11.430Z,51.00
2018-03-04T13:55:40.370Z,51.00
2018-03-04T13:58:08.963Z,50.90
2018-03-04T14:00:39.149Z,51.20
2018-03-04T14:03:08.072Z,50.90
2018-03-04T14:05:37.778Z,51.10
2018-03-04T14:08:07.335Z,50.90
2018-03-04T14:10:36.082Z,50.90
2018-03-04T14:13:04.567Z,50.90
2018-03-04T14:15:33.934Z,50.90
2018-03-04T14:18:02.498Z,50.90
2018-03-04T14:20:31.198Z,51.10
2018-03-04T14:23:01.619Z,50.90
2018-03-04T14:25:30.526Z,51.10
2018-03-04T14:28:00.799Z,50.90
2018-03-04T14:30:29.406Z,50.90
2018-03-04T14:32:58.213Z,50.90
2018-03-04T14:35:26.899Z,51.00
2018-03-04T14:37:56.534Z,50.70
2018-03-04T14:40:25.453Z,50.40
2018-03-04T14:42:54.951Z,50.30
2018-03-04T14:45:24.283Z,50.10
2018-03-04T14:47:52.993Z,50.10
2018-03-04T14:50:24.028Z,49.80
2018-03-04T14:52:53.034Z,49.80
2018-03-04T14:55:23.515Z,49.70
2018-03-04T14:57:52.189Z,49.50
2018-03-04T15:00:21.028Z,49.50
2018-03-04T15:02:49.490Z,49.00
2018-03-04T15:05:18.773Z,46.60
2018-03-04T15:07:47.470Z,46.40
2018-03-04T15:10:18.294Z,47.50
2018-03-04T15:12:47.008Z,47.50
2018-03-04T15:15:16.678Z,47.60
2018-03-04T15:17:45.998Z,47.20
2018-03-04T15:20:30.958Z,47.20
2018-03-04T15:22:59.581Z,47.00
2018-03-04T15:25:28.316Z,46.80
2018-03-04T15:27:58.204Z,46.80
2018-03-04T15:30:26.954Z,46.70
2018-03-04T15:32:55.551Z,46.20
2018-03-04T15:35:24.155Z,45.90
2018-03-04T15:37:52.859Z,45.80
2018-03-04T15:40:23.713Z,45.70
2018-03-04T15:42:53.059Z,45.10
2018-03-04T15:45:22.444Z,44.90
2018-03-04T15:47:51.354Z,45.00
2018-03-04T15:50:22.045Z,45.00
2018-03-04T15:52:51.377Z,45.00
2018-03-04T15:55:23.768Z,44.90
2018-03-04T15:57:52.649Z,45.20
2018-03-04T16:00:23.274Z,45.00
2018-03-04T16:02:53.877Z,44.80
2018-03-04T16:05:24.741Z,46.10
2018-03-04T16:07:55.276Z,45.80
2018-03-04T16:10:24.573Z,46.40
2018-03-04T16:12:54.419Z,46.30
2018-03-04T16:15:23.515Z,46.20
2018-03-04T16:17:52.467Z,46.40
2018-03-04T16:20:21.076Z,45.70
2018-03-04T16:22:49.665Z,44.70
2018-03-04T16:25:18.267Z,44.40
2018-03-04T16:27:47.612Z,41.30
2018-03-04T16:30:18.780Z,39.70
2018-03-04T16:32:47.923Z,39.60
2018-03-04T16:35:16.462Z,39.80
2018-03-04T16:37:45.279Z,39.80
2018-03-04T16:40:13.842Z,41.50
2018-03-04T16:42:42.985Z,43.70
2018-03-04T16:45:13.554Z,43.60
2018-03-04T16:47:42.221Z,43.40
2018-03-04T16:50:11.930Z,42.70
2018-03-04T16:52:40.667Z,42.70
2018-03-04T16:55:09.583Z,42.80
2018-03-04T16:57:38.147Z,42.90
2018-03-04T17:00:07.433Z,43.10
2018-03-04T17:02:35.958Z,43.10
2018-03-04T17:05:04.406Z,43.30
2018-03-04T17:07:33.441Z,43.40
2018-03-04T17:10:02.871Z,43.70
2018-03-04T17:12:31.498Z,43.60
2018-03-04T17:15:00.362Z,43.90
2018-03-04T17:17:28.847Z,44.50
2018-03-04T17:19:59.882Z,45.00
2018-03-04T17:22:29.422Z,46.10
2018-03-04T17:25:02.546Z,45.70
2018-03-04T17:27:56.706Z,45.40
2018-03-04T17:30:42.593Z,45.30
2018-03-04T17:33:13.124Z,45.30
2018-03-04T17:35:42.958Z,45.30
2018-03-04T17:38:21.088Z,45.50
2018-03-04T17:40:50.583Z,45.00
2018-03-04T17:43:20.272Z,46.30
2018-03-04T17:46:01.966Z,44.60
2018-03-04T17:49:03.070Z,44.70
2018-03-04T17:51:38.407Z,44.50
2018-03-04T17:54:16.646Z,44.50
2018-03-04T17:59:43.328Z,44.90
2018-03-04T18:07:25.550Z,44.90
2018-03-04T18:09:56.182Z,44.90
2018-03-04T18:12:26.480Z,44.90
2018-03-04T18:14:57.009Z,45.50
2018-03-04T18:17:32.070Z,45.20
2018-03-04T18:20:19.302Z,46.80
2018-03-04T18:22:50.884Z,44.90
2018-03-04T18:25:42.611Z,44.60
2018-03-04T18:28:12.351Z,44.00
2018-03-04T18:30:43.145Z,44.00
2018-03-04T18:36:49.296Z,44.50
2018-03-04T18:39:22.707Z,44.60
2018-03-04T18:44:54.089Z,44.60
2018-03-04T18:47:53.191Z,44.60
2018-03-04T18:53:37.243Z,44.70
2018-03-04T18:56:25.643Z,45.20
2018-03-04T18:58:54.448Z,45.70
2018-03-04T19:01:31.643Z,44.30
2018-03-04T19:04:04.062Z,44.20
2018-03-04T19:06:33.971Z,43.30
2018-03-04T19:09:02.880Z,44.30
2018-03-04T19:11:57.155Z,42.10
2018-03-04T19:17:08.665Z,44.00
2018-03-04T19:19:38.530Z,45.20
2018-03-04T19:24:23.656Z,47.70
2018-03-04T19:26:53.099Z,49.00
2018-03-04T19:29:26.680Z,48.50
2018-03-04T19:32:12.961Z,46.30
2018-03-04T19:34:45.551Z,48.00
2018-03-04T19:40:30.116Z,49.90
2018-03-04T19:43:02.897Z,50.40
2018-03-04T19:45:38.189Z,50.70
2018-03-04T19:48:07.318Z,50.70
2018-03-04T20:00:55.933Z,43.40
2018-03-04T20:06:37.803Z,46.10
2018-03-04T20:09:08.100Z,48.20
2018-03-04T20:11:42.702Z,50.10
2018-03-04T21:04:23.406Z,46.70
2018-03-04T21:06:52.584Z,46.70
2018-03-04T21:09:41.717Z,49.30
2018-03-04T21:12:30.384Z,51.00
2018-03-04T21:14:59.439Z,52.90
2018-03-04T21:17:42.476Z,52.30
2018-03-04T21:20:17.348Z,52.40
2018-03-04T21:26:08.786Z,52.80
2018-03-04T21:29:05.001Z,52.80
2018-03-04T21:31:34.254Z,52.90
2018-03-04T21:34:04.309Z,53.00
2018-03-04T21:36:44.968Z,53.20
2018-03-04T21:39:18.603Z,53.20
2018-03-04T21:41:48.180Z,53.20
2018-03-04T21:44:17.053Z,53.20
2018-03-04T21:49:40.359Z,53.30
2018-03-04T21:52:33.102Z,53.40
2018-03-04T21:55:05.762Z,53.80
2018-03-04T21:58:01.470Z,53.40
2018-03-04T22:00:40.241Z,53.80
2018-03-04T22:09:08.067Z,53.50
2018-03-04T22:11:36.568Z,53.70
2018-03-04T22:17:06.806Z,53.80
2018-03-04T22:19:36.963Z,53.70
2018-03-04T22:22:35.870Z,53.80
2018-03-04T22:25:05.947Z,53.90
2018-03-04T22:27:35.203Z,54.00
2018-03-04T22:30:04.384Z,53.80
2018-03-04T22:33:06.302Z,54.00
2018-03-04T22:35:38.613Z,54.00
2018-03-04T22:38:07.951Z,54.10
2018-03-04T22:40:58.154Z,54.10
2018-03-04T22:43:28.991Z,54.20
2018-03-04T22:45:58.440Z,54.40
2018-03-04T22:48:27.747Z,54.40
2018-03-04T22:50:57.848Z,54.20
2018-03-04T22:53:34.855Z,54.20
2018-03-04T22:56:07.610Z,54.40
2018-03-04T22:58:50.092Z,54.40
2018-03-04T23:01:21.669Z,54.40
2018-03-04T23:04:01.355Z,54.30
2018-03-04T23:06:32.561Z,54.60
2018-03-04T23:09:07.670Z,55.30
2018-03-04T23:11:44.297Z,54.40
2018-03-04T23:14:20.157Z,54.70
2018-03-04T23:16:49.284Z,54.70
2018-03-04T23:19:19.574Z,54.80
2018-03-04T23:21:55.737Z,54.70
2018-03-04T23:24:25.524Z,54.60
2018-03-04T23:27:18.570Z,54.50
2018-03-04T23:29:52.934Z,54.60
2018-03-04T23:32:23.871Z,54.90
2018-03-04T23:34:55.942Z,54.90
2018-03-04T23:37:24.897Z,55.00
2018-03-04T23:39:53.690Z,55.00
2018-03-04T23:42:23.537Z,55.10
2018-03-04T23:44:56.954Z,55.40
2018-03-04T23:47:25.828Z,55.30
2018-03-04T23:49:54.617Z,55.50
2018-03-04T23:52:23.291Z,55.50
2018-03-04T23:54:53.302Z,55.60
2018-03-04T23:57:39.107Z,55.70
